Flight Track Log - Related Links

Times and Time Zones

All times are in EDT time to prevent confusion due to time zone crossing. See the N5626Y flight status page for this flight to view local times or setup timezone preferences in your user account.

Time Position Orientation Groundspeed Altitude Reporting Facility
EDT Latitude Longitude Course Direction KTS MPH feet Rate Location/Type
Mon 09:14:34 PM 43.6044 -84.3706 226° Southwest 156 180 5,200  Level Chicago Center
Mon 09:15:36 PM 43.5769 -84.4097 226° Southwest 142 163 7,200 1,902 Climbing Chicago Center
Mon 09:16:37 PM 43.5506 -84.4539 231° Southwest 149 171 9,100 1,707 Climbing Chicago Center
Mon 09:17:39 PM 43.5211 -84.5003 229° Southwest 158 182 10,700 1,603 Climbing Chicago Center
Mon 09:18:48 PM 43.4817 -84.5661 230° Southwest 163 188 12,600 1,488 Climbing Cleveland Center
Mon 09:19:48 PM 43.4486 -84.6183 229° Southwest 177 204 13,900 1,400 Climbing Cleveland Center
Mon 09:20:48 PM 43.4153 -84.6703 229° Southwest 182 209 15,400 1,059 Climbing Cleveland Center
Mon 09:21:47 PM 43.3814 -84.7272 231° Southwest 196 226 16,000 298 Climbing Chicago Center
Mon 09:22:49 PM 43.3331 -84.7936 225° Southwest 238 274 16,000  Level Chicago Center
Mon 09:23:50 PM 43.2628 -84.8375 204° Southwest 272 313 16,000  Level Chicago Center
Mon 09:24:52 PM 43.1933 -84.8872 208° Southwest 278 320 16,000  Level Chicago Center
Mon 09:25:54 PM 43.1233 -84.9356 207° Southwest 281 323 16,000  Level Chicago Center
Mon 09:26:56 PM 43.0386 -84.9953 207° Southwest 283 326 16,000  Level Chicago Center
Mon 09:27:58 PM 42.9689 -85.0447 207° Southwest 282 325 16,000  Level Chicago Center
Mon 09:28:59 PM 42.8978 -85.0933 207° Southwest 284 327 16,000  Level Chicago Center
Mon 09:30:01 PM 42.8275 -85.1422 207° Southwest 284 327 16,000  Level Chicago Center
Mon 09:31:03 PM 42.7567 -85.1922 207° Southwest 285 328 16,000  Level Chicago Center
Mon 09:32:04 PM 42.6858 -85.2411 207° Southwest 285 328 16,000  Level Chicago Center
Mon 09:33:06 PM 42.6150 -85.2883 206° Southwest 284 327 16,000  Level Chicago Center
Mon 09:34:08 PM 42.5439 -85.3369 207° Southwest 285 328 16,000  Level Chicago Center
Mon 09:35:10 PM 42.4589 -85.3967 207° Southwest 286 329 16,000  Level Chicago Center
Mon 09:36:11 PM 42.3878 -85.4453 207° Southwest 286 329 16,000  Level Chicago Center
Mon 09:37:13 PM 42.3167 -85.4936 207° Southwest 286 329 16,000  Level Chicago Center
Mon 09:38:14 PM 42.2439 -85.5425 206° Southwest 291 335 16,000  Level Chicago Center
Mon 09:39:16 PM 42.1728 -85.5917 207° Southwest 289 333 16,000 48 Level Chicago Center
Mon 09:40:18 PM 42.1008 -85.6397 206° Southwest 289 333 16,100 49 Climbing Chicago Center
Mon 09:41:19 PM 42.0294 -85.6875 206° Southwest 288 331 16,100  Level Chicago Center
Mon 09:42:21 PM 41.9519 -85.7439 208° Southwest 291 335 16,100  Level Chicago Center
Mon 09:43:22 PM 41.8800 -85.7914 206° Southwest 290 334 16,100  Level Chicago Center
Mon 09:44:24 PM 41.8092 -85.8392 207° Southwest 289 333 16,100  Level Chicago Center
Mon 09:45:25 PM 41.7381 -85.8872 207° Southwest 289 333 16,100  Level Chicago Center
Mon 09:46:27 PM 41.6517 -85.9442 206° Southwest 290 334 16,100 -341 Level Chicago Center
Mon 09:47:28 PM 41.5792 -85.9922 206° Southwest 292 336 15,400 -984 Descending Chicago Center
Mon 09:48:29 PM 41.5228 -86.0683 225° Southwest 310 357 14,100 -1,268 Descending Chicago Center
Mon 09:49:31 PM 41.5222 -86.1819 270° West 309 356 12,800 -1,268 Descending Chicago Center
Mon 09:50:32 PM 41.5219 -86.2928 270° West 303 349 11,500 -1,268 Descending Chicago Center
Mon 09:51:34 PM 41.5231 -86.4056 271° West 304 350 10,200 -683 Descending Chicago Center
Mon 09:52:35 PM 41.5222 -86.5103 269° West 291 335 10,100 -49 Descending Chicago Center
Mon 09:53:36 PM 41.5197 -86.6072 268° West 271 312 10,100 -585 Level Chicago Center
Mon 09:54:38 PM 41.5203 -86.7278 270° West 273 314 8,900 -1,171 Descending Chicago Center
Mon 09:55:39 PM 41.5186 -86.8350 269° West 286 329 7,700 -1,230 Descending Chicago Center
Mon 09:56:40 PM 41.5178 -86.9369 269° West 279 321 6,400 -780 Descending Chicago Center
Mon 09:57:42 PM 41.5350 -87.0319 284° West 265 305 6,100 -195 Descending Chicago Center
Mon 09:58:43 PM 41.5547 -87.1231 286° West 258 297 6,000 -492 Descending Chicago Center
Mon 09:59:44 PM 41.5706 -87.2161 283° West 259 298 5,100 -976 Descending Chicago Center
Mon 10:00:46 PM 41.5836 -87.3169 280° West 263 303 4,000 -537 Descending Chicago Center
Mon 10:01:47 PM 41.6086 -87.4078 290° West 229 264 4,000  Level Chicago Center
Mon 10:02:48 PM 41.6303 -87.4783 292° West 210 242 4,000 -49 Level Chicago Center
Mon 10:03:49 PM 41.6472 -87.5411 290° West 190 219 3,900 -146 Descending Chicago Center
Mon 10:04:51 PM 41.6717 -87.5900 304° West 169 194 3,700 -585 Descending Chicago Center
Mon 10:05:52 PM 41.7028 -87.6392 310° West 170 196 2,700 -738 Descending Chicago Center
Mon 10:06:53 PM 41.7472 -87.6717 331° Northwest 180 207 2,200 -541 Descending Chicago Center
Mon 10:07:54 PM 41.7972 -87.6911 344° North 166 191 1,600 -590 Descending Chicago Center
Mon 10:08:55 PM 41.8056 -87.7311 286° West 143 165 1,000 -341 Descending Chicago Center
Mon 10:09:57 PM 41.7925 -87.7597 239° Southwest 133 153 900 -97 Descending Chicago Center

Login

Don't have an account? Register now (free) for customized features, flight alerts, and more!